General Aviation Weather

Text Reports

Enter one or more of the following location identifiers separated by a space:

Zip Code, Four-Character ICAO or Three-Character IATA airport codes.

METAR - Aviation Routine Weather Report
KJKA - Gulf Shores, Alabama
Updated at 1:15 PM GMT on August 02, 2015 (8:15 AM CDT):
METAR KJKA 021315Z AUTO 00000KT 10SM CLR 27/23 A2989 RMK AO2 T02650230
TAF - Terminal Area Forecast
KJKA - Gulf Shores, Alabama
Updated at 1:15 PM GMT on August 02, 2015 (8:15 AM CDT):
No TAF is currently available for this location.
Decoded:
No decoded TAF is available.
PIREP - Pilot Weather Report
KJKA - Gulf Shores, Alabama
Updated at 1:15 PM GMT on August 02, 2015 (8:15 AM CDT):
No PIREP is currently available for this location.
AIRMET - Airmens Meteorological Information
KJKA - Gulf Shores, Alabama
Updated at 1:15 PM GMT on August 02, 2015 (8:15 AM CDT):
No AIRMET is currently available for this location.
SIGMET - Significant Meteorological Information
KJKA - Gulf Shores, Alabama
Updated at 1:15 PM GMT on August 02, 2015 (8:15 AM CDT):
No SIGMET is currently available for this location.
NOTAM - Notice to Airmen
KJKA - Gulf Shores, Alabama
Updated at 1:15 PM GMT on August 02, 2015 (8:15 AM CDT):
No NOTAM is currently available for this location.
Forecast Area
KJKA - Gulf Shores, Alabama
Updated at 1:15 PM GMT on August 02, 2015 (8:15 AM CDT):
No NOTAM is currently available for this location.
Aviation Weather Maps